sim
Sign-in with your pilot id or email,
or register
Callsign
Passwort

Schedule Details

Flight Number: OEO8417
Departure: Lyon Saint Exupery Airport (LFLL) at 16:55
Arrival: Munich Airport (EDDM) at 18:20

Weather Information
Getting current METAR information for LFLL 280900Z 22004KT 6000 -RADZ BKN004 OVC023 11/10 Q1012 NOSIG
Getting current METAR information for EDDM 280850Z VRB01KT 9999 -RA FEW005 BKN045 07/06 Q1011 NOSIG

Schedule Frequency

Route Map